DLH3EV EDDF-EDDB
Flight info
| Callsign | DLH3EV |
|---|---|
| Flight time | 0h 51m |
| Altitude | 31000 |
| Route | TOBAK2S TOBAK N858 SWALM T201 TAMEB T278 KLF KLF1R |
| Aircraft | A321/M-SDE2E3FGIJ1LORWXYZ/HB1 |
Departure
| Time | 2026-04-16 06:31 |
|---|---|
| Airport | Frankfurt Main Airport (EDDF) |
Arrival
| Time | 2026-04-16 07:22 |
|---|---|
| Airport | Berlin Brandenburg Airport (EDDB) |
| Time | Latitude | Longitude | Altitude | Speed | Heading |
|---|---|---|---|---|---|
| 2026-04-16 06:11 | 50.04850 | 8.56952 | 361 ft | 0 kts | 295° |
| 2026-04-16 06:12 | 50.04852 | 8.56948 | 363 ft | 0 kts | 295° |
| 2026-04-16 06:12 | 50.04852 | 8.56947 | 363 ft | 0 kts | 295° |
| 2026-04-16 06:14 | 50.04852 | 8.56948 | 363 ft | 0 kts | 295° |
| 2026-04-16 06:24 | 50.04851 | 8.56951 | 361 ft | 3 kts | 295° |
| 2026-04-16 06:24 | 50.04840 | 8.56988 | 362 ft | 4 kts | 294° |
| 2026-04-16 06:24 | 50.04830 | 8.57025 | 364 ft | 4 kts | 274° |
| 2026-04-16 06:24 | 50.04836 | 8.57060 | 363 ft | 4 kts | 222° |
| 2026-04-16 06:25 | 50.04844 | 8.57070 | 362 ft | 2 kts | 205° |
| 2026-04-16 06:25 | 50.04820 | 8.57054 | 361 ft | 4 kts | 205° |
| 2026-04-16 06:25 | 50.04797 | 8.57037 | 359 ft | 2 kts | 205° |
| 2026-04-16 06:25 | 50.04796 | 8.57036 | 359 ft | 0 kts | 205° |
| 2026-04-16 06:27 | 50.04793 | 8.57034 | 358 ft | 2 kts | 205° |
| 2026-04-16 06:28 | 50.04765 | 8.57013 | 365 ft | 8 kts | 205° |
| 2026-04-16 06:28 | 50.04701 | 8.56967 | 357 ft | 13 kts | 205° |
| 2026-04-16 06:28 | 50.04597 | 8.56907 | 358 ft | 18 kts | 193° |
| 2026-04-16 06:28 | 50.04480 | 8.56865 | 361 ft | 18 kts | 193° |
| 2026-04-16 06:29 | 50.04356 | 8.56835 | 360 ft | 19 kts | 188° |
| 2026-04-16 06:29 | 50.04224 | 8.56790 | 363 ft | 20 kts | 192° |
| 2026-04-16 06:29 | 50.04086 | 8.56742 | 361 ft | 16 kts | 193° |
| 2026-04-16 06:29 | 50.04030 | 8.56666 | 359 ft | 5 kts | 245° |
| 2026-04-16 06:30 | 50.04011 | 8.56594 | 357 ft | 9 kts | 250° |
| 2026-04-16 06:30 | 50.03952 | 8.56349 | 361 ft | 58 kts | 249° |
| 2026-04-16 06:30 | 50.03723 | 8.55390 | 348 ft | 132 kts | 249° |
| 2026-04-16 06:30 | 50.03333 | 8.53796 | 665 ft | 162 kts | 248° |
| 2026-04-16 06:31 | 50.02974 | 8.52200 | 1659 ft | 153 kts | 251° |
| 2026-04-16 06:31 | 50.02595 | 8.50663 | 2451 ft | 159 kts | 245° |
| 2026-04-16 06:31 | 50.01726 | 8.49460 | 2882 ft | 183 kts | 204° |
| 2026-04-16 06:31 | 50.00437 | 8.48909 | 3192 ft | 203 kts | 198° |
| 2026-04-16 06:32 | 49.99049 | 8.48330 | 3703 ft | 209 kts | 198° |
| 2026-04-16 06:32 | 49.97636 | 8.47722 | 4327 ft | 211 kts | 198° |
| 2026-04-16 06:32 | 49.96233 | 8.46985 | 4868 ft | 220 kts | 211° |
| 2026-04-16 06:32 | 49.95108 | 8.45271 | 5076 ft | 240 kts | 244° |
| 2026-04-16 06:33 | 49.94794 | 8.42666 | 5500 ft | 256 kts | 279° |
| 2026-04-16 06:33 | 49.95552 | 8.40179 | 6249 ft | 262 kts | 314° |
| 2026-04-16 06:33 | 49.97143 | 8.38800 | 7041 ft | 270 kts | 347° |
| 2026-04-16 06:33 | 49.99026 | 8.38579 | 7876 ft | 273 kts | 358° |
| 2026-04-16 06:34 | 50.00937 | 8.38665 | 8723 ft | 276 kts | 1° |
| 2026-04-16 06:34 | 50.02865 | 8.38849 | 9567 ft | 279 kts | 2° |
| 2026-04-16 06:34 | 50.04810 | 8.39049 | 10362 ft | 281 kts | 1° |
| 2026-04-16 06:34 | 50.06812 | 8.39232 | 10763 ft | 299 kts | 1° |
| 2026-04-16 06:35 | 50.08968 | 8.39395 | 10996 ft | 319 kts | 0° |
| 2026-04-16 06:35 | 50.11221 | 8.39539 | 11534 ft | 328 kts | 360° |
| 2026-04-16 06:35 | 50.13519 | 8.39672 | 12166 ft | 333 kts | 359° |
| 2026-04-16 06:35 | 50.15852 | 8.39801 | 12813 ft | 338 kts | 359° |
| 2026-04-16 06:36 | 50.18218 | 8.39923 | 13472 ft | 342 kts | 359° |
| 2026-04-16 06:36 | 50.20616 | 8.40043 | 14112 ft | 347 kts | 359° |
| 2026-04-16 06:36 | 50.23044 | 8.40166 | 14709 ft | 351 kts | 359° |
| 2026-04-16 06:36 | 50.25494 | 8.40304 | 15347 ft | 354 kts | 1° |
| 2026-04-16 06:37 | 50.27935 | 8.40982 | 15968 ft | 361 kts | 14° |
| 2026-04-16 06:37 | 50.30260 | 8.42542 | 16590 ft | 368 kts | 27° |
| 2026-04-16 06:37 | 50.32334 | 8.44937 | 17190 ft | 374 kts | 39° |
| 2026-04-16 06:37 | 50.34286 | 8.47658 | 17822 ft | 377 kts | 39° |
| 2026-04-16 06:38 | 50.36251 | 8.50396 | 18429 ft | 379 kts | 38° |
| 2026-04-16 06:38 | 50.38229 | 8.53151 | 18923 ft | 382 kts | 38° |
| 2026-04-16 06:38 | 50.40226 | 8.55932 | 19405 ft | 386 kts | 38° |
| 2026-04-16 06:38 | 50.42241 | 8.58741 | 19887 ft | 389 kts | 38° |
| 2026-04-16 06:39 | 50.44275 | 8.61576 | 20368 ft | 393 kts | 38° |
| 2026-04-16 06:39 | 50.46342 | 8.64408 | 20857 ft | 396 kts | 37° |
| 2026-04-16 06:39 | 50.48453 | 8.67212 | 21314 ft | 399 kts | 36° |
| 2026-04-16 06:39 | 50.50598 | 8.70012 | 21781 ft | 403 kts | 36° |
| 2026-04-16 06:40 | 50.52766 | 8.72825 | 22225 ft | 406 kts | 36° |
| 2026-04-16 06:40 | 50.54951 | 8.75669 | 22695 ft | 410 kts | 37° |
| 2026-04-16 06:40 | 50.56973 | 8.78880 | 23122 ft | 418 kts | 47° |
| 2026-04-16 06:40 | 50.58630 | 8.82671 | 23548 ft | 425 kts | 58° |
| 2026-04-16 06:41 | 50.60050 | 8.86775 | 23924 ft | 428 kts | 59° |
| 2026-04-16 06:41 | 50.61476 | 8.90912 | 24302 ft | 431 kts | 58° |
| 2026-04-16 06:41 | 50.62915 | 8.95075 | 24656 ft | 434 kts | 58° |
| 2026-04-16 06:41 | 50.64363 | 8.99259 | 25032 ft | 437 kts | 58° |
| 2026-04-16 06:42 | 50.65827 | 9.03476 | 25397 ft | 440 kts | 58° |
| 2026-04-16 06:42 | 50.67298 | 9.07719 | 25762 ft | 443 kts | 58° |
| 2026-04-16 06:42 | 50.68776 | 9.11997 | 26137 ft | 446 kts | 59° |
| 2026-04-16 06:42 | 50.70261 | 9.16302 | 26494 ft | 448 kts | 59° |
| 2026-04-16 06:43 | 50.71598 | 9.20776 | 26836 ft | 454 kts | 68° |
| 2026-04-16 06:43 | 50.72497 | 9.25573 | 27190 ft | 458 kts | 75° |
| 2026-04-16 06:43 | 50.73233 | 9.30478 | 27538 ft | 461 kts | 75° |
| 2026-04-16 06:43 | 50.73976 | 9.35415 | 27887 ft | 464 kts | 75° |
| 2026-04-16 06:44 | 50.74727 | 9.40382 | 28234 ft | 466 kts | 75° |
| 2026-04-16 06:44 | 50.75480 | 9.45375 | 28570 ft | 469 kts | 75° |
| 2026-04-16 06:44 | 50.76235 | 9.50404 | 28900 ft | 472 kts | 75° |
| 2026-04-16 06:44 | 50.76992 | 9.55462 | 29226 ft | 475 kts | 75° |
| 2026-04-16 06:45 | 50.77749 | 9.60550 | 29570 ft | 477 kts | 76° |
| 2026-04-16 06:45 | 50.78507 | 9.65676 | 29905 ft | 480 kts | 76° |
| 2026-04-16 06:45 | 50.79265 | 9.70831 | 30219 ft | 483 kts | 76° |
| 2026-04-16 06:45 | 50.80026 | 9.76012 | 30505 ft | 486 kts | 76° |
| 2026-04-16 06:46 | 50.80794 | 9.81226 | 30787 ft | 488 kts | 76° |
| 2026-04-16 06:46 | 50.81563 | 9.86454 | 31061 ft | 490 kts | 76° |
| 2026-04-16 06:46 | 50.83082 | 9.96866 | 31203 ft | 473 kts | 76° |
| 2026-04-16 06:47 | 50.83808 | 10.01861 | 31198 ft | 462 kts | 76° |
| 2026-04-16 06:47 | 50.84338 | 10.06847 | 31198 ft | 459 kts | 85° |
| 2026-04-16 06:47 | 50.84112 | 10.16892 | 31199 ft | 457 kts | 96° |
| 2026-04-16 06:48 | 50.83530 | 10.26901 | 31201 ft | 457 kts | 96° |
| 2026-04-16 06:48 | 50.82956 | 10.36914 | 31201 ft | 457 kts | 96° |
| 2026-04-16 06:49 | 50.82369 | 10.46922 | 31196 ft | 457 kts | 96° |
| 2026-04-16 06:49 | 50.81769 | 10.56853 | 31196 ft | 457 kts | 96° |
| 2026-04-16 06:50 | 50.81272 | 10.66859 | 31194 ft | 457 kts | 89° |
| 2026-04-16 06:50 | 50.82328 | 10.76703 | 31190 ft | 455 kts | 69° |
| 2026-04-16 06:51 | 50.85082 | 10.85638 | 31197 ft | 452 kts | 59° |
| 2026-04-16 06:51 | 50.88051 | 10.94415 | 31189 ft | 453 kts | 59° |
| 2026-04-16 06:52 | 50.90993 | 11.03238 | 31186 ft | 453 kts | 59° |
| 2026-04-16 06:52 | 50.93937 | 11.12079 | 31191 ft | 454 kts | 59° |
| 2026-04-16 06:53 | 50.96886 | 11.20925 | 31195 ft | 454 kts | 59° |
| 2026-04-16 06:53 | 50.99832 | 11.29782 | 31189 ft | 454 kts | 59° |
| 2026-04-16 06:54 | 51.02776 | 11.38646 | 31215 ft | 454 kts | 59° |
| 2026-04-16 06:54 | 51.05709 | 11.47535 | 31174 ft | 454 kts | 59° |
| 2026-04-16 06:55 | 51.08637 | 11.56447 | 31182 ft | 455 kts | 59° |
| 2026-04-16 06:55 | 51.11554 | 11.65379 | 31178 ft | 455 kts | 60° |
| 2026-04-16 06:56 | 51.14471 | 11.74326 | 31190 ft | 455 kts | 60° |
| 2026-04-16 06:56 | 51.17379 | 11.83284 | 31190 ft | 455 kts | 60° |
| 2026-04-16 06:57 | 51.20321 | 11.92219 | 31206 ft | 454 kts | 55° |
| 2026-04-16 06:57 | 51.24216 | 11.99988 | 31182 ft | 447 kts | 42° |
| 2026-04-16 06:58 | 51.28509 | 12.07174 | 31179 ft | 447 kts | 42° |
| 2026-04-16 06:58 | 51.32851 | 12.14471 | 31172 ft | 463 kts | 42° |
| 2026-04-16 06:59 | 51.37371 | 12.22093 | 31195 ft | 479 kts | 43° |
| 2026-04-16 06:59 | 51.41962 | 12.29886 | 31199 ft | 482 kts | 43° |
| 2026-04-16 07:00 | 51.46549 | 12.37711 | 31193 ft | 482 kts | 43° |
| 2026-04-16 07:01 | 51.53434 | 12.49481 | 31186 ft | 482 kts | 43° |
| 2026-04-16 07:01 | 51.58020 | 12.57338 | 31179 ft | 482 kts | 43° |
| 2026-04-16 07:02 | 51.62607 | 12.65209 | 31193 ft | 482 kts | 43° |
| 2026-04-16 07:02 | 51.67190 | 12.73117 | 31178 ft | 483 kts | 43° |
| 2026-04-16 07:03 | 51.71775 | 12.81053 | 31176 ft | 484 kts | 43° |
| 2026-04-16 07:03 | 51.76356 | 12.89013 | 31177 ft | 484 kts | 43° |
| 2026-04-16 07:03 | 51.78469 | 12.93269 | 31172 ft | 489 kts | 54° |
| 2026-04-16 07:04 | 51.80250 | 12.97958 | 31177 ft | 490 kts | 56° |
| 2026-04-16 07:04 | 51.83785 | 13.07394 | 31195 ft | 491 kts | 56° |
| 2026-04-16 07:05 | 51.86720 | 13.15252 | 31213 ft | 491 kts | 56° |
| 2026-04-16 07:05 | 51.90255 | 13.24719 | 31207 ft | 491 kts | 56° |
| 2026-04-16 07:06 | 51.93783 | 13.34209 | 31188 ft | 492 kts | 56° |
| 2026-04-16 07:06 | 51.97302 | 13.43735 | 31203 ft | 493 kts | 57° |
| 2026-04-16 07:07 | 52.00823 | 13.53282 | 31208 ft | 493 kts | 54° |
| 2026-04-16 07:07 | 52.02998 | 13.57491 | 31207 ft | 483 kts | 36° |
| 2026-04-16 07:07 | 52.05623 | 13.60806 | 30775 ft | 477 kts | 32° |
| 2026-04-16 07:07 | 52.08362 | 13.63786 | 30071 ft | 470 kts | 25° |
| 2026-04-16 07:08 | 52.11189 | 13.66443 | 29276 ft | 469 kts | 25° |
| 2026-04-16 07:08 | 52.14009 | 13.69104 | 28502 ft | 467 kts | 25° |
| 2026-04-16 07:08 | 52.16781 | 13.71724 | 27738 ft | 451 kts | 25° |
| 2026-04-16 07:08 | 52.19427 | 13.74239 | 27007 ft | 431 kts | 26° |
| 2026-04-16 07:09 | 52.21962 | 13.76653 | 26321 ft | 414 kts | 26° |
| 2026-04-16 07:09 | 52.24406 | 13.78975 | 25626 ft | 399 kts | 26° |
| 2026-04-16 07:09 | 52.26780 | 13.81224 | 24949 ft | 392 kts | 26° |
| 2026-04-16 07:09 | 52.29121 | 13.83438 | 24283 ft | 386 kts | 26° |
| 2026-04-16 07:10 | 52.31432 | 13.85623 | 23609 ft | 381 kts | 26° |
| 2026-04-16 07:10 | 52.33656 | 13.87932 | 22832 ft | 379 kts | 36° |
| 2026-04-16 07:10 | 52.35511 | 13.90962 | 22042 ft | 377 kts | 50° |
| 2026-04-16 07:10 | 52.36855 | 13.94625 | 21251 ft | 375 kts | 65° |
| 2026-04-16 07:11 | 52.37787 | 13.98595 | 20479 ft | 371 kts | 68° |
| 2026-04-16 07:11 | 52.38688 | 14.02523 | 19743 ft | 366 kts | 67° |
| 2026-04-16 07:11 | 52.39582 | 14.06397 | 19017 ft | 361 kts | 67° |
| 2026-04-16 07:11 | 52.40466 | 14.10211 | 18283 ft | 356 kts | 66° |
| 2026-04-16 07:12 | 52.41337 | 14.13969 | 17488 ft | 351 kts | 66° |
| 2026-04-16 07:12 | 52.42197 | 14.17680 | 16709 ft | 346 kts | 66° |
| 2026-04-16 07:12 | 52.43042 | 14.21331 | 15935 ft | 340 kts | 66° |
| 2026-04-16 07:12 | 52.44070 | 14.24683 | 15187 ft | 327 kts | 47° |
| 2026-04-16 07:13 | 52.45730 | 14.27087 | 14455 ft | 306 kts | 22° |
| 2026-04-16 07:13 | 52.47656 | 14.28047 | 13719 ft | 287 kts | 358° |
| 2026-04-16 07:13 | 52.49562 | 14.27550 | 12860 ft | 273 kts | 333° |
| 2026-04-16 07:13 | 52.51078 | 14.25742 | 11817 ft | 272 kts | 307° |
| 2026-04-16 07:14 | 52.51899 | 14.22968 | 10800 ft | 274 kts | 282° |
| 2026-04-16 07:14 | 52.51840 | 14.19841 | 9838 ft | 278 kts | 258° |
| 2026-04-16 07:14 | 52.51320 | 14.16832 | 9072 ft | 270 kts | 255° |
| 2026-04-16 07:14 | 52.50790 | 14.13926 | 8420 ft | 262 kts | 255° |
| 2026-04-16 07:15 | 52.50288 | 14.11098 | 7783 ft | 255 kts | 255° |
| 2026-04-16 07:15 | 52.49819 | 14.08344 | 7276 ft | 246 kts | 255° |
| 2026-04-16 07:15 | 52.49385 | 14.05677 | 6781 ft | 238 kts | 255° |
| 2026-04-16 07:15 | 52.48975 | 14.03031 | 6271 ft | 242 kts | 255° |
| 2026-04-16 07:16 | 52.48562 | 14.00314 | 5757 ft | 249 kts | 256° |
| 2026-04-16 07:16 | 52.48131 | 13.97531 | 5235 ft | 255 kts | 255° |
| 2026-04-16 07:16 | 52.47602 | 13.94745 | 4900 ft | 251 kts | 250° |
| 2026-04-16 07:16 | 52.46993 | 13.92052 | 4522 ft | 250 kts | 249° |
| 2026-04-16 07:17 | 52.46379 | 13.89446 | 4388 ft | 239 kts | 249° |
| 2026-04-16 07:17 | 52.45798 | 13.86956 | 4255 ft | 228 kts | 249° |
| 2026-04-16 07:17 | 52.45244 | 13.84575 | 4120 ft | 219 kts | 249° |
| 2026-04-16 07:17 | 52.44702 | 13.82253 | 4054 ft | 218 kts | 249° |
| 2026-04-16 07:18 | 52.44169 | 13.79973 | 3815 ft | 211 kts | 250° |
| 2026-04-16 07:18 | 52.43650 | 13.77737 | 3447 ft | 210 kts | 249° |
| 2026-04-16 07:18 | 52.43135 | 13.75547 | 3136 ft | 205 kts | 248° |
| 2026-04-16 07:18 | 52.42627 | 13.73430 | 3006 ft | 189 kts | 249° |
| 2026-04-16 07:19 | 52.42174 | 13.71472 | 2790 ft | 181 kts | 249° |
| 2026-04-16 07:19 | 52.41737 | 13.69593 | 2517 ft | 177 kts | 249° |
| 2026-04-16 07:19 | 52.41301 | 13.67721 | 2205 ft | 174 kts | 249° |
| 2026-04-16 07:19 | 52.40878 | 13.65978 | 2012 ft | 155 kts | 248° |
| 2026-04-16 07:20 | 52.40505 | 13.64381 | 1781 ft | 151 kts | 248° |
| 2026-04-16 07:20 | 52.40128 | 13.62746 | 1551 ft | 155 kts | 248° |
| 2026-04-16 07:20 | 52.39730 | 13.61088 | 1306 ft | 158 kts | 248° |
| 2026-04-16 07:20 | 52.39346 | 13.59460 | 1032 ft | 146 kts | 249° |
| 2026-04-16 07:21 | 52.38992 | 13.57923 | 825 ft | 148 kts | 246° |
| 2026-04-16 07:21 | 52.38621 | 13.56343 | 655 ft | 148 kts | 247° |
| 2026-04-16 07:21 | 52.38252 | 13.54788 | 481 ft | 146 kts | 247° |
| 2026-04-16 07:21 | 52.37891 | 13.53237 | 299 ft | 146 kts | 248° |
| 2026-04-16 07:22 | 52.37531 | 13.51711 | 158 ft | 134 kts | 248° |
| 2026-04-16 07:22 | 52.37260 | 13.50573 | 155 ft | 67 kts | 249° |
| 2026-04-16 07:22 | 52.37116 | 13.50239 | 155 ft | 23 kts | 220° |
| 2026-04-16 07:22 | 52.36988 | 13.50065 | 155 ft | 24 kts | 218° |
| 2026-04-16 07:23 | 52.36834 | 13.49997 | 155 ft | 24 kts | 164° |
| 2026-04-16 07:23 | 52.36682 | 13.50125 | 155 ft | 26 kts | 149° |
| 2026-04-16 07:23 | 52.36520 | 13.50271 | 155 ft | 27 kts | 158° |
| 2026-04-16 07:23 | 52.36345 | 13.50385 | 155 ft | 28 kts | 159° |
| 2026-04-16 07:24 | 52.36274 | 13.50494 | 155 ft | 13 kts | 130° |
| 2026-04-16 07:24 | 52.36265 | 13.50579 | 155 ft | 3 kts | 77° |
| 2026-04-16 07:24 | 52.36277 | 13.50628 | 155 ft | 5 kts | 69° |
| 2026-04-16 07:24 | 52.36282 | 13.50652 | 155 ft | 1 kts | 69° |